This is the latest recevied weather packets stored in our database for station/object KO4RMV-3. If no packets are shown the sender has not sent any weather packets the latest 10 day(s).
| Time | Temp. | Humidity | Pressure | Rain* | Wind** | Luminosity | Snow |
|---|---|---|---|---|---|---|---|
| 1777413605 | 20° C | 62% | - | 0 mm | - | - | - |
| 1777412705 | 20° C | 60% | - | 0 mm | - | - | - |
| 1777411806 | 20° C | 59% | - | 0 mm | - | - | - |
| 1777410006 | 20° C | 57% | - | 0 mm | - | - | - |
| 1777409106 | 20.56° C | 56% | - | 0 mm | - | - | - |
| 1777408206 | 21.11° C | 55% | - | 0 mm | - | - | - |
| 1777407306 | 20.56° C | 55% | - | 0 mm | - | - | - |
| 1777406405 | 20.56° C | 55% | - | 0 mm | - | - | - |
| 1777405505 | 20.56° C | 55% | - | 0 mm | - | - | - |
| 1777404605 | 20° C | 55% | - | 0 mm | - | - | - |
| 1777403705 | 20.56° C | 54% | - | 0 mm | - | - | - |
| 1777402805 | 19.44° C | 56% | - | 0 mm | - | - | - |
| 1777401905 | 20° C | 53% | - | 0 mm | - | - | - |
| 1777401005 | 19.44° C | 53% | - | 0 mm | - | - | - |
| 1777400105 | 20° C | 51% | - | 0 mm | - | - | - |
| 1777399205 | 19.44° C | 51% | - | 0 mm | - | - | - |
| 1777398305 | 19.44° C | 51% | - | 0 mm | - | - | - |
| 1777397405 | 19.44° C | 52% | - | 0 mm | - | - | - |
| 1777396505 | 18.33° C | 56% | - | 0 mm | - | - | - |
| 1777395606 | 17.78° C | 58% | - | 0 mm | - | - | - |
| 1777394706 | 16.11° C | 62% | - | 0 mm | - | - | - |
| 1777393806 | 14.44° C | 69% | - | 0 mm | - | - | - |
| 1777392906 | 13.89° C | 69% | - | 0 mm | - | - | - |
| 1777392006 | 13.89° C | 72% | - | 0 mm | - | - | - |
| 1777391106 | 13.89° C | 70% | - | 0 mm | - | - | - |
* Rain latest hour (hover to see other rain measurements)
** Current wind speed in m/s (hover to see current wind gust speed)